Time;durP1;ratioP1;P1;durP2;ratioP2;P2;SDS_P1;SDS_P2;PMS_P1;PMS_P2;Temp;Humidity;BMP_temperature;BMP_pressure;BME280_temperature;BME280_humidity;BME280_pressure;Samples;Min_cycle;Max_cycle;Signal;HPM_P1;HPM_P2
2021/09/30 00:02:13;;;;;;;10.77;6.20;;;;;;;16.93;60.43;100989.13;5069667;28;20039;-22
2021/09/30 00:04:39;;;;;;;7.85;5.53;;;;;;;16.93;59.90;100969.44;5069546;28;20028;-21
2021/09/30 00:07:07;;;;;;;10.65;6.28;;;;;;;17.26;58.89;100983.06;5069484;28;20024;-21
2021/09/30 00:09:36;;;;;;;11.15;6.45;;;;;;;17.36;58.81;100989.69;5069967;28;20040;-22
2021/09/30 00:12:10;;;;;;;10.35;6.00;;;;;;;17.54;57.86;100975.19;5069454;28;20097;-22
2021/09/30 00:17:36;;;;;;;14.27;6.78;;;;;;;17.23;58.79;100975.44;5069441;28;20484;-22
2021/09/30 00:34:17;;;;;;;10.48;7.10;;;;;;;17.17;59.85;100973.69;5056959;28;20444;-22
2021/09/30 00:42:09;;;;;;;8.95;6.45;;;;;;;16.31;63.72;100980.75;5069123;28;20032;-22
2021/09/30 00:52:25;;;;;;;10.50;6.53;;;;;;;16.57;62.51;100976.75;5067095;28;20085;-21
2021/09/30 00:55:16;;;;;;;9.65;6.28;;;;;;;16.31;63.36;100981.56;5068650;28;20131;-22
2021/09/30 01:46:08;;;;;;;12.18;6.70;;;;;;;17.36;58.75;100976.19;5068567;28;20093;-22
2021/09/30 02:58:41;;;;;;;8.70;5.55;;;;;;;15.96;60.57;100968.94;5055962;28;20043;-22
2021/09/30 03:01:16;;;;;;;13.65;6.57;;;;;;;15.94;60.05;100968.34;5052987;28;20025;-21
2021/09/30 03:03:42;;;;;;;10.40;6.63;;;;;;;16.59;58.47;100969.25;5053680;28;20388;-22
2021/09/30 03:06:07;;;;;;;17.77;8.13;;;;;;;16.93;57.86;100983.72;5052920;28;20031;-21
2021/09/30 03:08:42;;;;;;;12.20;7.25;;;;;;;17.00;57.59;100983.59;5069259;28;20408;-21
2021/09/30 03:11:08;;;;;;;10.48;6.80;;;;;;;16.37;59.95;100983.31;5069659;28;20056;-22
2021/09/30 03:13:33;;;;;;;8.90;7.15;;;;;;;16.14;61.63;100984.16;5069244;28;20075;-22
2021/09/30 03:23:42;;;;;;;8.43;5.75;;;;;;;15.78;62.09;100982.47;5053422;28;20029;-21
2021/09/30 03:26:07;;;;;;;9.60;6.38;;;;;;;15.80;63.20;100996.50;5070259;28;20032;-22
2021/09/30 03:28:33;;;;;;;12.05;7.18;;;;;;;16.10;61.95;100984.84;5069521;28;20047;-21
2021/09/30 03:30:59;;;;;;;10.57;7.22;;;;;;;16.60;60.25;101001.31;5052229;28;20087;-21
2021/09/30 03:33:24;;;;;;;14.43;6.97;;;;;;;16.17;61.71;100991.75;5035718;28;20071;-21
2021/09/30 03:35:50;;;;;;;10.48;6.60;;;;;;;15.91;62.68;100998.38;5070324;28;20029;-21
2021/09/30 03:38:16;;;;;;;14.15;7.20;;;;;;;15.86;63.22;101004.47;5052188;28;20133;-21
2021/09/30 03:40:42;;;;;;;13.75;7.15;;;;;;;16.39;60.83;100994.69;5069815;28;20511;-22
2021/09/30 03:43:07;;;;;;;12.57;7.30;;;;;;;16.68;60.67;101000.97;5068802;28;20059;-21
2021/09/30 03:45:33;;;;;;;14.05;7.28;;;;;;;16.08;62.81;100982.41;5069892;28;20059;-21
2021/09/30 03:47:59;;;;;;;11.10;7.15;;;;;;;15.65;64.29;100988.81;5069849;28;20029;-22
2021/09/30 03:50:31;;;;;;;10.93;7.28;;;;;;;15.62;65.26;101006.22;5070033;28;20058;-22
2021/09/30 03:55:57;;;;;;;15.10;7.25;;;;;;;15.71;64.48;101009.41;5069630;28;20507;-21
2021/09/30 04:00:55;;;;;;;10.85;6.90;;;;;;;15.26;66.70;101002.59;5069939;28;20035;-21
2021/09/30 04:03:20;;;;;;;13.50;7.60;;;;;;;15.66;63.96;101002.03;5068601;28;20029;-21
2021/09/30 04:05:45;;;;;;;15.13;7.07;;;;;;;16.10;61.93;101009.88;5069373;28;20032;-21
2021/09/30 04:08:11;;;;;;;11.93;7.28;;;;;;;15.57;64.86;101003.44;5069850;28;20032;-22
2021/09/30 04:10:36;;;;;;;15.10;7.47;;;;;;;15.33;65.29;100985.56;5069504;28;20463;-21
2021/09/30 04:13:02;;;;;;;12.15;7.53;;;;;;;15.37;65.35;101000.19;5069068;28;20039;-21
2021/09/30 04:15:27;;;;;;;11.57;7.20;;;;;;;15.49;65.51;101006.44;5069332;28;20016;-21
2021/09/30 04:17:53;;;;;;;12.75;7.28;;;;;;;15.96;63.62;100995.81;5069368;28;20082;-21
2021/09/30 04:20:18;;;;;;;14.98;8.02;;;;;;;16.19;62.28;100999.59;5069352;28;20098;-22
2021/09/30 04:22:44;;;;;;;13.07;7.70;;;;;;;16.01;62.23;100987.88;5069099;28;20032;-21
2021/09/30 04:25:11;;;;;;;11.82;7.22;;;;;;;16.17;62.31;100990.94;5069315;28;20023;-22
2021/09/30 04:27:36;;;;;;;13.63;7.90;;;;;;;16.38;61.16;101006.47;5068116;28;20420;-22
2021/09/30 04:30:03;;;;;;;14.90;8.07;;;;;;;15.86;63.32;100996.38;5069273;28;20024;-21
2021/09/30 04:32:29;;;;;;;12.35;7.45;;;;;;;15.67;64.31;100998.31;5068941;28;20040;-22
2021/09/30 04:34:54;;;;;;;13.82;8.07;;;;;;;15.58;65.39;101018.50;5069130;28;20051;-21
2021/09/30 04:37:20;;;;;;;17.40;7.57;;;;;;;15.44;65.54;100992.84;5069154;28;20093;-21
2021/09/30 04:39:45;;;;;;;12.32;7.75;;;;;;;15.54;66.11;101003.88;5069325;28;20036;-21
2021/09/30 04:42:11;;;;;;;16.00;8.43;;;;;;;15.76;65.20;101006.09;5069150;28;20040;-22
2021/09/30 04:44:36;;;;;;;17.48;8.80;;;;;;;15.56;65.64;101006.34;5068859;28;20029;-21
2021/09/30 04:47:02;;;;;;;15.50;8.20;;;;;;;15.61;65.91;101015.38;5069069;28;20661;-21
2021/09/30 04:49:27;;;;;;;15.52;8.02;;;;;;;15.60;65.27;100996.75;5068894;28;20048;-21
2021/09/30 04:51:53;;;;;;;17.73;7.38;;;;;;;15.56;65.94;101025.97;5068933;28;20036;-21
2021/09/30 04:54:18;;;;;;;19.95;7.80;;;;;;;15.44;64.75;101020.53;5068664;28;20424;-21
2021/09/30 04:56:44;;;;;;;13.45;7.53;;;;;;;15.36;65.26;101017.34;5068587;28;20029;-22
2021/09/30 04:59:09;;;;;;;18.55;8.10;;;;;;;15.67;64.76;101017.13;5068838;28;20040;-21
2021/09/30 05:01:35;;;;;;;15.77;7.20;;;;;;;15.62;64.65;101008.09;5068802;28;20029;-21
2021/09/30 05:04:00;;;;;;;32.08;9.27;;;;;;;15.89;63.38;101022.00;5068776;28;20043;-21
2021/09/30 05:06:26;;;;;;;18.67;7.45;;;;;;;16.03;63.33;101018.03;5068698;28;20024;-22
2021/09/30 05:08:56;;;;;;;11.35;7.57;;;;;;;16.45;62.14;101020.66;5068524;28;20024;-21
2021/09/30 05:11:22;;;;;;;18.48;8.35;;;;;;;16.22;62.77;101004.50;5068628;28;20028;-22
2021/09/30 05:13:52;;;;;;;18.92;8.45;;;;;;;16.53;62.14;101024.88;5068713;28;20032;-22
2021/09/30 05:16:18;;;;;;;16.00;8.57;;;;;;;16.62;61.97;101034.22;5068724;28;20075;-21
2021/09/30 05:18:47;;;;;;;12.43;7.75;;;;;;;16.95;60.63;101032.00;5050442;28;20047;-22
2021/09/30 05:21:12;;;;;;;12.77;7.25;;;;;;;16.86;61.10;101042.31;5068689;28;20047;-21
2021/09/30 05:23:38;;;;;;;10.88;6.95;;;;;;;16.58;61.54;101024.97;5068534;28;20441;-21
2021/09/30 05:26:03;;;;;;;11.35;7.20;;;;;;;16.37;62.55;101034.47;5068453;28;20082;-22
2021/09/30 05:28:28;;;;;;;10.35;6.97;;;;;;;16.49;62.46;101031.78;5068602;28;20095;-22
2021/09/30 05:30:54;;;;;;;10.13;7.10;;;;;;;16.39;62.95;101045.81;5068287;28;20040;-21
2021/09/30 05:33:20;;;;;;;11.80;6.93;;;;;;;16.51;61.76;101023.47;5068317;28;20048;-22
2021/09/30 05:35:46;;;;;;;10.38;7.20;;;;;;;16.19;61.85;101023.81;5068625;28;20028;-22
2021/09/30 05:38:12;;;;;;;18.25;8.10;;;;;;;16.10;62.93;101044.03;5068841;28;20046;-22
2021/09/30 05:40:37;;;;;;;13.27;7.45;;;;;;;16.59;61.46;101036.56;5071888;28;20884;-22
2021/09/30 05:43:04;;;;;;;12.27;7.32;;;;;;;16.91;60.59;101036.22;5070975;28;20032;-21
2021/09/30 05:45:32;;;;;;;11.07;6.68;;;;;;;16.95;57.41;101040.06;5072243;28;20551;-22
2021/09/30 05:47:57;;;;;;;10.75;6.35;;;;;;;17.13;57.85;101048.00;5072165;28;20054;-22
2021/09/30 05:50:25;;;;;;;11.10;7.32;;;;;;;16.87;57.90;101046.66;5072180;28;20036;-22
2021/09/30 05:52:50;;;;;;;11.52;6.78;;;;;;;16.55;57.99;101038.94;5071822;28;20035;-22
2021/09/30 05:55:16;;;;;;;15.32;7.82;;;;;;;16.48;58.28;101051.69;5071744;28;20044;-21
2021/09/30 05:57:44;;;;;;;9.95;6.30;;;;;;;16.28;58.58;101043.94;5072070;28;20036;-21
2021/09/30 06:00:19;;;;;;;11.35;6.40;;;;;;;16.58;58.40;101057.28;5071867;28;20059;-21
2021/09/30 06:14:22;;;;;;;8.27;6.05;;;;;;;17.15;55.81;101056.66;5029491;28;20160;-22
2021/09/30 06:16:50;;;;;;;13.27;8.02;;;;;;;17.34;54.63;101059.19;5029223;28;20044;-22
2021/09/30 06:19:20;;;;;;;18.15;6.60;;;;;;;17.30;55.14;101063.44;5052666;28;20512;-22
2021/09/30 06:21:49;;;;;;;10.05;5.80;;;;;;;17.45;53.84;101055.66;5071602;28;20042;-22
2021/09/30 06:24:18;;;;;;;11.10;6.00;;;;;;;17.15;54.71;101050.47;5071585;28;20043;-22
2021/09/30 06:26:44;;;;;;;12.82;6.30;;;;;;;17.74;53.57;101063.75;5071262;28;20480;-22
2021/09/30 06:29:09;;;;;;;9.82;5.43;;;;;;;18.15;53.21;101056.38;5071422;28;20032;-22
2021/09/30 06:31:35;;;;;;;11.98;6.82;;;;;;;18.13;51.49;101055.81;5071360;28;20101;-22
2021/09/30 06:34:00;;;;;;;9.25;6.70;;;;;;;18.05;51.48;101059.72;5071067;28;20458;-22
2021/09/30 06:36:26;;;;;;;12.40;6.78;;;;;;;17.94;51.63;101055.19;5071300;28;20035;-22
2021/09/30 06:38:51;;;;;;;11.32;6.97;;;;;;;18.10;51.93;101046.28;5071042;28;20044;-21
2021/09/30 06:41:17;;;;;;;10.43;6.38;;;;;;;18.28;51.42;101083.03;5071240;28;20040;-21
2021/09/30 06:43:42;;;;;;;11.52;5.25;;;;;;;18.19;50.76;101076.41;5071180;28;20488;-22
2021/09/30 06:46:08;;;;;;;10.15;5.72;;;;;;;18.51;50.37;101075.81;5071147;28;20032;-21
2021/09/30 06:48:33;;;;;;;9.82;5.50;;;;;;;18.83;49.16;101070.66;5071108;28;20028;-21
2021/09/30 06:50:58;;;;;;;12.13;6.40;;;;;;;18.99;49.45;101074.38;5070064;28;20036;-21
2021/09/30 06:53:24;;;;;;;11.80;5.18;;;;;;;18.68;49.19;101055.84;5070662;28;20048;-22
2021/09/30 06:55:49;;;;;;;10.60;4.65;;;;;;;18.72;49.47;101068.84;5070978;28;20029;-21
2021/09/30 06:58:19;;;;;;;13.32;5.78;;;;;;;18.29;50.17;101076.59;5070880;28;20048;-21
2021/09/30 07:00:44;;;;;;;;;;;;;;;18.69;48.06;101075.56;5070949;28;20040;-22
2021/09/30 07:03:09;;;;;;;15.90;5.88;;;;;;;18.69;48.79;101072.84;5070958;28;19916;-22
2021/09/30 07:05:35;;;;;;;9.10;4.57;;;;;;;18.43;48.49;101061.69;5070720;28;20381;-22
2021/09/30 07:08:01;;;;;;;13.55;4.32;;;;;;;18.58;49.29;101068.38;5070659;28;20028;-22
2021/09/30 07:10:26;;;;;;;9.80;5.32;;;;;;;18.53;48.63;101065.59;5070603;28;20040;-22
2021/09/30 07:12:52;;;;;;;9.93;4.95;;;;;;;18.44;48.26;101070.59;5070435;28;20044;-21
2021/09/30 07:15:17;;;;;;;16.20;6.15;;;;;;;18.57;48.53;101069.44;5070533;28;20040;-22
2021/09/30 07:17:43;;;;;;;8.38;4.60;;;;;;;18.71;47.96;101068.03;5070681;28;20040;-22
2021/09/30 07:20:09;;;;;;;11.50;4.75;;;;;;;18.47;48.30;101068.22;5070492;28;20045;-22
2021/09/30 07:22:34;;;;;;;12.70;5.10;;;;;;;18.49;48.36;101070.69;5070121;28;20028;-21
2021/09/30 07:25:00;;;;;;;11.80;5.55;;;;;;;18.52;47.86;101074.78;5070425;28;20403;-21
2021/09/30 07:27:25;;;;;;;12.80;4.80;;;;;;;18.60;48.07;101071.66;5070481;28;20024;-22
2021/09/30 07:29:51;;;;;;;9.73;4.38;;;;;;;18.74;47.46;101064.03;5070507;28;20044;-22
2021/09/30 07:32:16;;;;;;;15.02;5.53;;;;;;;18.75;46.97;101065.66;5070215;28;20062;-22
2021/09/30 07:34:42;;;;;;;10.13;5.00;;;;;;;19.07;46.78;101052.31;5069896;28;20036;-22
2021/09/30 07:37:07;;;;;;;10.77;5.15;;;;;;;19.48;46.39;101060.91;5070140;28;20078;-21
2021/09/30 07:39:33;;;;;;;13.23;4.30;;;;;;;19.65;44.95;101061.63;5070204;28;20039;-21
2021/09/30 07:41:59;;;;;;;12.43;4.97;;;;;;;19.28;44.77;101053.38;5070087;28;20404;-21
2021/09/30 07:44:25;;;;;;;10.48;4.85;;;;;;;19.19;46.82;101053.00;5069946;28;20032;-22
2021/09/30 07:46:51;;;;;;;10.10;4.53;;;;;;;19.18;46.46;101073.00;5069785;28;20027;-21
2021/09/30 07:49:16;;;;;;;8.00;4.68;;;;;;;19.28;45.63;101070.41;5069930;28;20463;-21
2021/09/30 07:51:42;;;;;;;10.38;5.63;;;;;;;19.49;45.13;101057.13;5069913;28;20416;-21
2021/09/30 07:54:08;;;;;;;12.52;5.35;;;;;;;19.63;44.84;101063.75;5069974;28;20055;-21
2021/09/30 07:56:33;;;;;;;17.08;5.97;;;;;;;19.73;44.55;101046.84;5069512;28;20079;-22
2021/09/30 07:58:59;;;;;;;11.82;5.22;;;;;;;19.50;44.86;101064.19;5069644;28;20031;-22
2021/09/30 08:01:24;;;;;;;9.32;4.82;;;;;;;19.93;44.92;101062.47;5069524;28;20100;-21
2021/09/30 08:03:50;;;;;;;13.10;4.72;;;;;;;20.03;43.80;101053.63;5069680;28;20028;-21
2021/09/30 08:06:16;;;;;;;8.27;4.00;;;;;;;20.37;42.58;101053.34;5069612;28;20032;-22
2021/09/30 08:08:41;;;;;;;11.40;4.65;;;;;;;20.27;42.97;101059.50;5069980;28;20144;-21
2021/09/30 08:11:07;;;;;;;9.50;4.78;;;;;;;20.19;40.83;101049.16;5069555;28;20041;-21
2021/09/30 08:13:33;;;;;;;6.93;3.92;;;;;;;19.79;40.86;101056.66;5069642;28;20028;-21
2021/09/30 08:15:58;;;;;;;12.77;4.93;;;;;;;19.81;41.67;101048.28;5069421;28;20468;-22
2021/09/30 08:18:24;;;;;;;15.52;6.03;;;;;;;19.51;41.98;101044.16;5069667;28;20040;-22
2021/09/30 08:20:49;;;;;;;13.30;4.75;;;;;;;19.43;41.98;101037.34;5068892;28;20032;-22
2021/09/30 08:23:15;;;;;;;15.20;6.47;;;;;;;19.56;42.08;101035.31;5069113;28;20039;-22
2021/09/30 08:25:41;;;;;;;12.18;6.15;;;;;;;19.45;42.85;101039.75;5051267;28;20028;-22
2021/09/30 08:28:06;;;;;;;14.80;6.32;;;;;;;19.85;41.72;101049.41;5069280;28;20020;-22
2021/09/30 08:30:32;;;;;;;14.68;6.55;;;;;;;20.36;40.88;101032.75;5069135;28;20032;-22
2021/09/30 08:32:58;;;;;;;15.20;6.47;;;;;;;20.48;38.23;101036.91;5068737;28;20115;-22
2021/09/30 08:35:23;;;;;;;11.57;6.40;;;;;;;20.61;36.91;101029.41;5068827;28;20028;-21
2021/09/30 08:37:49;;;;;;;9.57;5.15;;;;;;;20.35;36.50;101031.94;5069104;28;20036;-21
2021/09/30 08:40:14;;;;;;;14.00;5.10;;;;;;;20.18;37.65;101028.56;5069014;28;20392;-22
2021/09/30 08:42:43;;;;;;;8.85;3.97;;;;;;;20.45;36.96;101028.47;5068811;28;20031;-22
2021/09/30 08:45:10;;;;;;;8.75;4.07;;;;;;;20.95;35.70;101031.75;5068904;28;20071;-21
2021/09/30 08:47:35;;;;;;;10.20;3.65;;;;;;;20.77;36.20;101011.34;5068916;28;20025;-23
2021/09/30 08:50:00;;;;;;;12.00;5.80;;;;;;;20.50;35.92;101027.69;5068815;28;20024;-22
2021/09/30 08:52:26;;;;;;;8.10;4.38;;;;;;;20.61;36.39;101019.38;5069280;28;20763;-22
2021/09/30 08:54:51;;;;;;;14.80;8.32;;;;;;;20.69;35.90;100998.28;5068474;28;20048;-22
2021/09/30 08:57:17;;;;;;;11.02;4.10;;;;;;;20.39;35.46;101016.81;5068973;28;20035;-21
2021/09/30 08:59:42;;;;;;;11.52;3.78;;;;;;;20.28;35.74;101025.91;5068778;28;20040;-21
2021/09/30 09:02:14;;;;;;;10.45;5.43;;;;;;;20.97;35.80;101026.88;5051169;28;20033;-22
2021/09/30 09:04:52;;;;;;;6.90;3.78;;;;;;;21.23;34.71;101023.19;5068444;28;20092;-21
2021/09/30 09:07:21;;;;;;;12.18;4.30;;;;;;;21.57;34.06;101014.59;5068757;28;20037;-21
2021/09/30 09:09:46;;;;;;;17.80;4.35;;;;;;;21.75;35.21;101028.75;5068669;28;20032;-22
2021/09/30 09:12:12;;;;;;;10.00;3.92;;;;;;;21.53;35.38;101018.94;5068882;28;20036;-21
2021/09/30 09:14:39;;;;;;;12.32;3.72;;;;;;;22.00;33.06;101009.72;5070476;28;20499;-21
2021/09/30 09:17:11;;;;;;;9.25;4.00;;;;;;;22.63;32.47;101019.44;5072716;28;20031;-21
2021/09/30 09:19:39;;;;;;;10.35;5.25;;;;;;;22.06;33.31;101003.19;5071534;28;20032;-22
2021/09/30 09:22:05;;;;;;;11.63;4.25;;;;;;;21.93;34.05;101016.53;5072652;28;20028;-22
2021/09/30 09:24:31;;;;;;;8.25;3.58;;;;;;;21.18;34.35;101003.34;5072654;28;20028;-22
2021/09/30 09:27:02;;;;;;;7.45;3.90;;;;;;;20.78;34.42;101008.38;5072417;28;20029;-22
2021/09/30 09:29:30;;;;;;;11.05;5.35;;;;;;;20.79;35.23;101020.84;5072585;28;20043;-22
2021/09/30 09:31:55;;;;;;;10.02;4.07;;;;;;;20.96;34.70;101015.19;5072302;28;20024;-21
2021/09/30 09:34:28;;;;;;;12.90;4.18;;;;;;;20.59;34.34;101004.47;5072500;28;20092;-23
2021/09/30 09:37:14;;;;;;;11.90;6.57;;;;;;;20.84;34.48;101001.91;5072450;28;20032;-24
2021/09/30 09:39:39;;;;;;;7.55;3.50;;;;;;;20.82;33.74;100993.22;5054602;28;20136;-23
2021/09/30 09:42:14;;;;;;;12.20;4.68;;;;;;;21.05;33.29;100999.25;5072203;28;20477;-21
2021/09/30 09:45:16;;;;;;;8.43;3.88;;;;;;;21.72;33.67;100999.41;5072070;28;20028;-20
2021/09/30 09:47:44;;;;;;;8.52;3.83;;;;;;;21.42;32.92;100990.97;5065057;28;20072;-20
2021/09/30 09:50:19;;;;;;;9.55;4.05;;;;;;;21.15;32.75;100996.56;5072186;28;20040;-20
2021/09/30 09:52:50;;;;;;;8.98;4.53;;;;;;;21.03;32.85;101004.13;5071977;28;20055;-20
2021/09/30 09:55:18;;;;;;;8.20;3.60;;;;;;;21.97;31.63;101002.13;5071909;28;20048;-20
2021/09/30 09:58:00;;;;;;;8.30;3.10;;;;;;;21.53;31.73;100997.22;5072047;28;20039;-20
2021/09/30 10:00:26;;;;;;;7.07;3.00;;;;;;;21.85;30.97;100993.44;5071933;28;20032;-22
2021/09/30 10:02:52;;;;;;;7.80;3.00;;;;;;;22.14;30.75;100998.31;5071735;28;20078;-22
2021/09/30 10:05:20;;;;;;;25.92;4.53;;;;;;;21.69;31.70;100994.53;5070829;28;20090;-23
2021/09/30 10:07:46;;;;;;;6.50;2.97;;;;;;;21.11;32.91;100990.06;5071878;28;20107;-22
2021/09/30 10:10:12;;;;;;;5.35;2.85;;;;;;;20.81;31.21;100997.00;5071716;28;20126;-22
2021/09/30 10:12:37;;;;;;;9.98;4.15;;;;;;;20.99;31.29;100994.91;5071555;28;20036;-22
2021/09/30 10:15:03;;;;;;;6.82;3.42;;;;;;;21.24;31.01;100986.00;5071812;28;20037;-22
2021/09/30 10:17:29;;;;;;;5.97;2.85;;;;;;;21.76;30.02;100986.91;5071846;28;20032;-23
2021/09/30 10:19:56;;;;;;;5.78;3.15;;;;;;;22.22;29.92;100978.75;5071771;28;20028;-22
2021/09/30 10:22:21;;;;;;;7.20;3.00;;;;;;;22.39;29.33;100981.19;5071692;28;20025;-22
2021/09/30 10:24:47;;;;;;;9.32;3.70;;;;;;;22.06;30.15;100958.94;5069965;28;20048;-22
2021/09/30 10:27:12;;;;;;;5.32;3.28;;;;;;;22.25;29.66;100981.78;5071574;28;20393;-22
2021/09/30 10:29:45;;;;;;;7.53;3.40;;;;;;;21.69;30.44;100983.69;5070298;28;20032;-22
2021/09/30 10:32:12;;;;;;;8.48;3.35;;;;;;;21.54;30.93;100982.56;5071316;28;20032;-22
2021/09/30 10:34:41;;;;;;;9.13;4.38;;;;;;;22.13;30.18;100964.09;5071439;28;20044;-22
2021/09/30 10:37:26;;;;;;;10.90;4.20;;;;;;;22.35;29.44;100978.22;5071467;28;20032;-23
2021/09/30 10:40:12;;;;;;;8.07;3.20;;;;;;;22.07;30.08;100991.25;5071330;28;20107;-23
2021/09/30 10:42:55;;;;;;;16.23;8.98;;;;;;;21.60;30.52;100967.13;5071108;28;20030;-23
2021/09/30 10:45:23;;;;;;;8.77;4.20;;;;;;;21.88;29.68;100971.16;5071183;28;20115;-23
2021/09/30 10:47:48;;;;;;;;;;;;;;;21.95;31.14;100971.72;5071536;28;20119;-22
2021/09/30 10:50:14;;;;;;;12.13;3.90;;;;;;;22.38;30.65;100971.41;5053147;28;20415;-23
2021/09/30 10:52:58;;;;;;;8.15;3.47;;;;;;;22.11;31.08;100968.97;5070817;28;20027;-22
2021/09/30 10:55:24;;;;;;;10.63;3.58;;;;;;;22.31;29.60;100974.41;5071071;28;20051;-22
2021/09/30 10:57:53;;;;;;;8.07;3.30;;;;;;;23.04;27.26;100964.91;5071002;28;20033;-23
2021/09/30 11:00:19;;;;;;;9.55;3.47;;;;;;;23.31;27.87;100969.09;5070860;28;20503;-23
2021/09/30 11:02:59;;;;;;;6.88;3.28;;;;;;;23.78;26.48;100968.53;5070607;28;20020;-23
2021/09/30 11:05:25;;;;;;;8.32;3.22;;;;;;;23.32;27.51;100954.41;5070737;28;20043;-22
2021/09/30 11:08:20;;;;;;;8.57;3.08;;;;;;;24.48;26.01;100948.19;5070749;28;20103;-22
2021/09/30 11:11:06;;;;;;;7.35;3.28;;;;;;;24.57;25.58;100951.13;5055013;28;20032;-22
2021/09/30 11:13:42;;;;;;;4.38;2.92;;;;;;;24.34;26.52;100956.25;5070817;28;20024;-22
2021/09/30 11:16:20;;;;;;;7.97;2.88;;;;;;;24.81;24.54;100951.91;5070671;28;20416;-22
2021/09/30 11:18:51;;;;;;;7.72;3.40;;;;;;;25.23;24.64;100953.00;5070415;28;20028;-22
2021/09/30 11:21:32;;;;;;;6.80;3.50;;;;;;;24.98;24.96;100951.41;5070342;28;20039;-20
2021/09/30 11:24:04;;;;;;;7.85;3.22;;;;;;;25.43;23.63;100946.38;5070445;28;20032;-20
2021/09/30 11:26:33;;;;;;;9.57;3.42;;;;;;;26.03;24.26;100945.69;5070335;28;20097;-20
2021/09/30 11:29:27;;;;;;;9.23;3.30;;;;;;;25.96;23.05;100948.00;5070398;28;20032;-20
2021/09/30 11:31:58;;;;;;;8.50;3.08;;;;;;;26.36;22.39;100953.81;5070231;28;20033;-20
2021/09/30 11:34:26;;;;;;;9.18;5.40;;;;;;;27.09;22.13;100934.78;5070302;28;20111;-19
2021/09/30 11:36:53;;;;;;;8.82;2.95;;;;;;;27.05;21.63;100936.50;5069474;28;20056;-20
2021/09/30 11:39:18;;;;;;;9.63;3.58;;;;;;;26.73;24.29;100941.06;5070473;28;20032;-20
2021/09/30 11:41:45;;;;;;;6.97;3.33;;;;;;;26.19;24.37;100935.25;5070528;28;20111;-20
2021/09/30 11:44:18;;;;;;;7.20;3.97;;;;;;;25.99;24.34;100920.06;5070113;28;20055;-20
2021/09/30 11:46:43;;;;;;;9.05;3.83;;;;;;;25.83;24.62;100932.38;5069931;28;20025;-20
2021/09/30 11:49:10;;;;;;;8.43;3.50;;;;;;;25.98;25.31;100906.69;5069856;28;20489;-20
2021/09/30 11:51:40;;;;;;;9.18;4.25;;;;;;;26.40;24.19;100913.81;5069813;28;20032;-21
2021/09/30 11:54:07;;;;;;;8.63;4.05;;;;;;;25.16;25.78;100911.56;5069884;28;20878;-20
2021/09/30 11:56:39;;;;;;;7.72;4.75;;;;;;;24.46;26.54;100923.94;5070100;28;20028;-20
2021/09/30 11:59:06;;;;;;;7.50;4.00;;;;;;;24.75;26.81;100925.00;5069690;28;20033;-20
2021/09/30 12:01:50;;;;;;;9.18;3.40;;;;;;;24.30;25.97;100916.25;5069617;28;20090;-20
2021/09/30 12:04:49;;;;;;;9.00;3.28;;;;;;;24.70;26.01;100917.66;5069846;28;20029;-20
2021/09/30 12:07:21;;;;;;;14.65;9.00;;;;;;;25.93;24.97;100915.81;5069682;28;20516;-19
2021/09/30 12:09:48;;;;;;;9.27;3.75;;;;;;;26.52;24.63;100917.94;5069691;28;20103;-20
2021/09/30 12:12:14;;;;;;;9.77;3.60;;;;;;;26.79;23.21;100917.94;5069815;28;20055;-20
2021/09/30 12:14:40;;;;;;;8.20;3.22;;;;;;;25.96;23.45;100901.53;5069179;28;20078;-20
2021/09/30 12:17:08;;;;;;;8.40;3.17;;;;;;;25.74;23.87;100912.28;5069271;28;20408;-20
2021/09/30 12:19:50;;;;;;;8.88;3.13;;;;;;;25.07;24.45;100899.72;5069233;28;20035;-20
2021/09/30 12:22:17;;;;;;;8.27;3.85;;;;;;;25.11;25.34;100905.38;5069132;28;20028;-20
2021/09/30 12:24:51;;;;;;;9.47;3.90;;;;;;;24.41;25.68;100883.09;5068851;28;20492;-21
2021/09/30 12:27:17;;;;;;;8.00;3.15;;;;;;;23.43;26.48;100888.72;5051181;28;20274;-20
2021/09/30 12:29:44;;;;;;;10.63;3.85;;;;;;;23.31;27.47;100884.75;5068979;28;20032;-20
2021/09/30 12:32:12;;;;;;;13.40;6.80;;;;;;;23.37;28.03;100902.66;5068873;28;20032;-20
2021/09/30 12:34:38;;;;;;;10.50;5.85;;;;;;;23.33;28.04;100871.66;5069024;28;20033;-20
2021/09/30 12:37:03;;;;;;;8.60;3.83;;;;;;;23.76;27.22;100883.53;5069038;28;20064;-20
2021/09/30 12:39:30;;;;;;;10.15;4.20;;;;;;;24.03;26.33;100887.66;5069078;28;20454;-20
2021/09/30 12:42:09;;;;;;;7.03;3.53;;;;;;;23.70;26.74;100900.19;5069076;28;20036;-20
2021/09/30 12:44:35;;;;;;;8.85;3.90;;;;;;;23.71;25.96;100885.50;5068867;28;20047;-20
2021/09/30 12:47:00;;;;;;;10.32;4.13;;;;;;;23.09;26.52;100891.44;5068920;28;20465;-20
2021/09/30 12:49:26;;;;;;;10.15;3.88;;;;;;;22.79;26.54;100868.75;5068145;28;20031;-20
2021/09/30 12:51:51;;;;;;;6.82;3.28;;;;;;;22.39;26.55;100875.19;5069316;28;20040;-19
2021/09/30 12:54:26;;;;;;;7.25;3.58;;;;;;;22.53;26.36;100878.13;5068879;28;20044;-20
2021/09/30 12:56:51;;;;;;;9.10;3.60;;;;;;;22.98;26.75;100878.97;5068570;28;20027;-24
2021/09/30 12:59:17;;;;;;;9.57;3.70;;;;;;;23.11;25.92;100886.53;5069301;28;20072;-20
2021/09/30 13:01:42;;;;;;;5.57;2.95;;;;;;;23.04;25.79;100875.16;5069111;28;20526;-20
2021/09/30 13:04:14;;;;;;;7.15;2.90;;;;;;;22.36;26.18;100881.19;5068779;28;20052;-20
2021/09/30 13:06:42;;;;;;;5.78;2.95;;;;;;;23.05;25.58;100857.75;5068511;28;20033;-20
2021/09/30 13:09:21;;;;;;;12.18;3.45;;;;;;;24.16;25.02;100876.06;5068750;28;20614;-20
2021/09/30 13:11:51;;;;;;;7.82;2.63;;;;;;;26.18;22.31;100883.63;5051240;28;20098;-20
2021/09/30 13:14:35;;;;;;;10.57;3.10;;;;;;;26.92;20.84;100886.16;5068578;28;20111;-20
2021/09/30 13:17:03;;;;;;;9.10;3.33;;;;;;;26.34;22.44;100882.22;5068827;28;20097;-20
2021/09/30 13:19:42;;;;;;;4.40;2.60;;;;;;;25.57;21.36;100859.03;5069053;28;20090;-20
2021/09/30 13:22:08;;;;;;;8.40;2.97;;;;;;;25.51;23.08;100868.44;5068475;28;20036;-20
2021/09/30 13:24:34;;;;;;;12.02;3.45;;;;;;;24.81;24.10;100850.97;5068427;28;20032;-20
2021/09/30 13:27:00;;;;;;;6.03;2.70;;;;;;;24.20;24.59;100865.38;5068469;28;20403;-20
2021/09/30 13:29:25;;;;;;;6.68;2.75;;;;;;;23.77;26.18;100857.16;5068581;28;20473;-20
2021/09/30 13:31:51;;;;;;;7.57;2.83;;;;;;;23.25;25.46;100863.03;5068378;28;20392;-20
2021/09/30 13:34:18;;;;;;;6.07;3.30;;;;;;;22.77;25.70;100846.47;5068432;28;20032;-20
2021/09/30 13:36:43;;;;;;;13.13;3.63;;;;;;;22.72;26.30;100849.22;5068159;28;20158;-20
2021/09/30 13:39:08;;;;;;;8.95;3.50;;;;;;;22.93;26.80;100870.84;5068547;28;20033;-20
2021/09/30 13:41:34;;;;;;;10.40;3.88;;;;;;;22.53;28.05;100829.22;5068403;28;20040;-20
2021/09/30 13:43:59;;;;;;;8.48;3.40;;;;;;;22.67;27.58;100854.69;5068993;28;20467;-20
2021/09/30 13:46:25;;;;;;;6.63;3.50;;;;;;;23.38;26.07;100850.66;5068522;28;20029;-20
2021/09/30 13:48:50;;;;;;;10.05;3.65;;;;;;;23.40;26.60;100859.34;5068106;28;20028;-20
2021/09/30 13:51:16;;;;;;;12.27;4.57;;;;;;;23.50;26.09;100858.47;5068344;28;20052;-20
2021/09/30 13:53:41;;;;;;;11.98;3.58;;;;;;;22.96;26.90;100843.06;5068141;28;20428;-20
2021/09/30 13:56:07;;;;;;;18.45;4.47;;;;;;;22.99;28.23;100851.50;5068316;28;20025;-20
2021/09/30 13:58:35;;;;;;;16.92;6.28;;;;;;;23.22;28.36;100858.13;5068174;28;20031;-20
2021/09/30 14:01:00;;;;;;;;;;;;;;;23.02;29.40;100861.00;5071124;28;20105;-20
2021/09/30 14:03:25;;;;;;;8.55;3.90;;;;;;;22.86;27.01;100858.38;5072099;28;20280;-20
2021/09/30 14:05:51;;;;;;;5.55;2.85;;;;;;;23.11;26.37;100856.59;5071946;28;20035;-20
2021/09/30 14:08:18;;;;;;;11.45;3.15;;;;;;;24.11;24.58;100850.75;5071772;28;20032;-20
2021/09/30 14:10:44;;;;;;;10.00;3.55;;;;;;;25.88;23.14;100857.69;5070125;28;20423;-23
2021/09/30 14:13:10;;;;;;;42.38;6.13;;;;;;;27.81;20.73;100850.84;5071806;28;20055;-23
2021/09/30 14:15:35;;;;;;;9.15;3.08;;;;;;;28.17;20.11;100853.41;5071668;28;20477;-23
2021/09/30 14:18:01;;;;;;;7.95;3.13;;;;;;;26.39;23.49;100856.66;5071659;28;20032;-23
2021/09/30 14:20:26;;;;;;;9.77;3.33;;;;;;;24.84;24.09;100858.53;5071609;28;20127;-23